Time;durP1;ratioP1;P1;durP2;ratioP2;P2;SDS_P1;SDS_P2;PMS_P1;PMS_P2;Temp;Humidity;BMP_temperature;BMP_pressure;BME280_temperature;BME280_humidity;BME280_pressure;Samples;Min_cycle;Max_cycle;Signal;HPM_P1;HPM_P2
2022/03/15 00:01:08;;;;;;;6.60;4.72;;;;;;;4.59;80.99;102167.81;5043392;27;20016;-71
2022/03/15 00:03:34;;;;;;;5.53;4.90;;;;;;;4.58;81.28;102167.91;5049101;27;20025;-71
2022/03/15 00:05:59;;;;;;;5.15;4.50;;;;;;;4.51;81.34;102172.53;5039919;27;20120;-71
2022/03/15 00:08:26;;;;;;;5.07;4.57;;;;;;;4.49;81.63;102160.41;5046798;27;20820;-70
2022/03/15 00:10:55;;;;;;;7.85;5.15;;;;;;;4.42;81.58;102155.41;5035485;27;20020;-71
2022/03/15 00:13:22;;;;;;;7.97;5.10;;;;;;;4.44;82.00;102163.22;5026216;28;20040;-70
2022/03/15 00:15:48;;;;;;;6.75;4.93;;;;;;;4.44;81.88;102156.22;5009220;28;20013;-71
2022/03/15 00:18:14;;;;;;;5.70;5.10;;;;;;;4.34;82.22;102154.03;5021375;27;20009;-71
2022/03/15 00:20:39;;;;;;;4.97;4.47;;;;;;;4.30;82.15;102154.16;5031435;27;20031;-71
2022/03/15 00:23:05;;;;;;;9.88;5.38;;;;;;;4.35;82.22;102147.88;5084708;27;20020;-71
2022/03/15 00:25:31;;;;;;;5.88;4.60;;;;;;;4.36;82.21;102147.81;5075259;27;20080;-71
2022/03/15 00:27:57;;;;;;;6.55;4.38;;;;;;;4.40;82.23;102152.00;5079286;27;20487;-70
2022/03/15 00:30:23;;;;;;;6.63;4.50;;;;;;;4.33;82.01;102145.31;5052935;27;20559;-71
2022/03/15 00:32:50;;;;;;;5.97;4.82;;;;;;;4.34;82.33;102140.91;5028251;27;20197;-72
2022/03/15 00:35:18;;;;;;;5.63;4.88;;;;;;;4.30;82.46;102138.44;5029686;27;20124;-70
2022/03/15 00:37:50;;;;;;;6.00;4.65;;;;;;;4.32;82.23;102137.53;5023922;27;20021;-71
2022/03/15 00:40:17;;;;;;;5.57;5.07;;;;;;;4.26;82.42;102138.63;5017545;27;20029;-71
2022/03/15 00:42:46;;;;;;;5.25;4.85;;;;;;;4.34;82.40;102138.28;5035623;27;20035;-70
2022/03/15 00:45:12;;;;;;;5.53;5.00;;;;;;;4.27;82.57;102142.91;5034344;27;20002;-70
2022/03/15 00:47:37;;;;;;;5.10;4.70;;;;;;;4.23;82.57;102134.34;5034591;27;20147;-71
2022/03/15 00:50:03;;;;;;;5.55;5.10;;;;;;;4.11;83.33;102135.66;5033810;27;20636;-73
2022/03/15 00:52:28;;;;;;;9.20;5.60;;;;;;;4.15;83.08;102136.41;5031948;27;20017;-72
2022/03/15 00:54:54;;;;;;;6.22;5.55;;;;;;;4.21;82.85;102143.19;5030841;27;20920;-71
2022/03/15 00:57:19;;;;;;;7.63;5.38;;;;;;;4.21;83.07;102146.63;5034243;27;20017;-71
2022/03/15 00:59:44;;;;;;;5.93;5.22;;;;;;;4.24;82.64;102148.28;5034153;27;20704;-72
2022/03/15 01:02:10;;;;;;;5.97;5.30;;;;;;;4.27;82.38;102148.16;4991742;27;20017;-72
2022/03/15 01:04:35;;;;;;;7.93;5.50;;;;;;;4.24;82.47;102150.91;5010629;27;20029;-72
2022/03/15 01:07:00;;;;;;;7.15;5.95;;;;;;;4.20;82.81;102144.09;5012136;27;20032;-71
2022/03/15 01:09:26;;;;;;;7.38;5.70;;;;;;;4.20;83.10;102149.31;4998404;28;20316;-71
2022/03/15 01:11:51;;;;;;;6.82;5.90;;;;;;;4.20;83.11;102149.31;5026961;27;20025;-71
2022/03/15 01:14:16;;;;;;;6.65;5.88;;;;;;;4.26;82.79;102154.34;5029714;28;20257;-71
2022/03/15 01:16:42;;;;;;;6.07;5.47;;;;;;;4.25;82.92;102150.00;5033965;27;20623;-72
2022/03/15 01:19:08;;;;;;;11.15;5.65;;;;;;;4.26;82.64;102154.34;5017970;28;20147;-71
2022/03/15 01:21:39;;;;;;;6.82;5.53;;;;;;;4.32;82.05;102153.25;4997036;28;20481;-72
2022/03/15 01:24:13;;;;;;;7.43;5.55;;;;;;;4.30;82.13;102150.66;5032132;27;20113;-72
2022/03/15 01:26:39;;;;;;;7.75;5.50;;;;;;;4.32;82.01;102143.59;5014286;28;20021;-70
2022/03/15 01:29:04;;;;;;;6.45;5.57;;;;;;;4.23;82.15;102138.72;5032764;27;20796;-71
2022/03/15 01:31:29;;;;;;;6.50;5.63;;;;;;;4.25;82.12;102147.38;5030782;27;20470;-70
2022/03/15 01:33:55;;;;;;;5.85;5.25;;;;;;;4.26;81.70;102144.69;5014238;28;20801;-71
2022/03/15 01:36:21;;;;;;;10.10;5.70;;;;;;;4.22;82.23;102148.34;5022721;27;20072;-71
2022/03/15 01:38:46;;;;;;;5.80;5.30;;;;;;;4.18;82.45;102151.16;5008655;28;20070;-71
2022/03/15 01:41:12;;;;;;;6.05;5.30;;;;;;;4.20;82.17;102136.22;5028355;27;20025;-70
2022/03/15 01:43:39;;;;;;;8.75;5.82;;;;;;;4.18;82.39;102145.94;5030433;28;20008;-70
2022/03/15 01:46:06;;;;;;;7.30;5.63;;;;;;;4.13;82.52;102138.22;5028468;27;20016;-71
2022/03/15 01:48:31;;;;;;;7.32;5.72;;;;;;;4.10;82.41;102144.47;5030525;28;20025;-71
2022/03/15 01:50:57;;;;;;;8.23;5.88;;;;;;;4.13;82.32;102138.22;5030383;27;20777;-70
2022/03/15 01:53:22;;;;;;;6.35;5.75;;;;;;;4.19;82.60;102134.50;5013638;28;21229;-71
2022/03/15 01:55:48;;;;;;;6.30;5.68;;;;;;;4.19;82.25;102137.13;5028478;27;20020;-71
2022/03/15 01:58:13;;;;;;;8.10;5.90;;;;;;;4.12;82.75;102132.16;5030531;28;20024;-70
2022/03/15 02:00:39;;;;;;;8.13;5.40;;;;;;;4.15;82.64;102130.34;5029161;27;20032;-71
2022/03/15 02:03:05;;;;;;;6.88;5.90;;;;;;;4.10;82.64;102125.25;5028361;28;20021;-71
2022/03/15 02:05:30;;;;;;;6.30;5.70;;;;;;;4.07;82.91;102123.59;5011921;27;20879;-70
2022/03/15 02:07:56;;;;;;;7.10;5.75;;;;;;;4.07;82.93;102120.13;5032032;28;21156;-70
2022/03/15 02:10:22;;;;;;;6.80;6.03;;;;;;;4.11;82.62;102119.09;5006187;27;20189;-70
2022/03/15 02:12:47;;;;;;;8.63;6.30;;;;;;;4.15;82.32;102114.63;5030185;28;20009;-71
2022/03/15 02:15:13;;;;;;;8.25;5.75;;;;;;;4.16;82.58;102114.56;5011081;27;20032;-71
2022/03/15 02:17:39;;;;;;;6.18;5.57;;;;;;;4.17;82.36;102107.53;5036721;27;20029;-70
2022/03/15 02:20:08;;;;;;;7.43;5.93;;;;;;;4.11;82.84;102098.16;5030079;27;20008;-70
2022/03/15 02:22:34;;;;;;;6.22;5.63;;;;;;;4.10;82.95;102099.94;5033006;27;20049;-71
2022/03/15 02:24:59;;;;;;;5.85;5.35;;;;;;;4.16;82.59;102111.94;5022368;27;20065;-70
2022/03/15 02:27:25;;;;;;;7.18;5.88;;;;;;;4.19;82.55;102110.94;5036734;27;20017;-70
2022/03/15 02:29:50;;;;;;;6.65;5.90;;;;;;;4.17;82.87;102104.91;5038572;27;20040;-71
2022/03/15 02:32:16;;;;;;;6.95;6.20;;;;;;;4.23;82.04;102091.56;5035035;27;20867;-71
2022/03/15 02:34:41;;;;;;;8.48;6.43;;;;;;;4.18;82.15;102088.28;5019378;27;20052;-70
2022/03/15 02:37:07;;;;;;;7.20;6.50;;;;;;;4.18;82.47;102104.84;5025849;27;20032;-71
2022/03/15 02:39:32;;;;;;;6.88;6.18;;;;;;;4.16;82.40;102090.09;5037923;27;20028;-71
2022/03/15 02:41:57;;;;;;;7.68;6.53;;;;;;;4.17;82.53;102087.41;5039208;27;20815;-71
2022/03/15 02:44:23;;;;;;;8.10;6.70;;;;;;;4.13;82.61;102102.41;5037919;27;20422;-70
2022/03/15 02:46:51;;;;;;;8.55;6.70;;;;;;;4.15;82.65;102088.41;5038116;27;20028;-71
2022/03/15 02:49:17;;;;;;;9.30;6.32;;;;;;;4.15;82.73;102085.78;5019080;27;20044;-70
2022/03/15 02:51:42;;;;;;;8.57;6.15;;;;;;;4.17;82.47;102087.41;4984023;28;20326;-70
2022/03/15 02:54:13;;;;;;;7.45;6.20;;;;;;;4.17;82.61;102076.94;5019430;28;20843;-70
2022/03/15 02:56:42;;;;;;;11.43;6.32;;;;;;;4.16;82.55;102069.13;5020728;27;20133;-70
2022/03/15 02:59:14;;;;;;;9.02;6.22;;;;;;;4.23;82.64;102065.34;5021950;28;20036;-71
2022/03/15 03:01:40;;;;;;;7.70;6.47;;;;;;;4.45;81.91;102074.03;5030121;27;20387;-70
2022/03/15 03:04:06;;;;;;;6.75;6.10;;;;;;;4.31;81.99;102079.00;5022619;28;20025;-70
2022/03/15 03:06:32;;;;;;;7.25;5.82;;;;;;;4.30;81.77;102066.78;5037393;27;20021;-71
2022/03/15 03:08:57;;;;;;;7.38;6.53;;;;;;;4.39;82.18;102069.06;5043147;27;20161;-70
2022/03/15 03:11:23;;;;;;;8.50;5.70;;;;;;;4.36;81.79;102065.69;5016396;27;20085;-71
2022/03/15 03:13:48;;;;;;;9.93;6.53;;;;;;;4.25;82.24;102059.13;5027495;27;20045;-70
2022/03/15 03:16:14;;;;;;;7.22;6.45;;;;;;;4.17;82.56;102060.38;5044548;27;20215;-70
2022/03/15 03:18:39;;;;;;;6.47;5.82;;;;;;;4.19;82.54;102053.28;5044838;27;20793;-70
2022/03/15 03:21:05;;;;;;;6.65;6.05;;;;;;;4.16;82.93;102048.19;5025947;27;20456;-70
2022/03/15 03:23:33;;;;;;;6.50;5.82;;;;;;;4.21;83.21;102052.31;5044870;27;20120;-72
2022/03/15 03:25:59;;;;;;;7.40;6.07;;;;;;;4.22;82.74;102048.78;5043231;27;20021;-70
2022/03/15 03:28:25;;;;;;;6.18;5.57;;;;;;;4.44;82.08;102051.38;5027698;27;20049;-71
2022/03/15 03:30:50;;;;;;;7.60;6.10;;;;;;;4.34;82.51;102047.41;5025405;27;20005;-71
2022/03/15 03:33:16;;;;;;;8.15;5.72;;;;;;;4.58;81.51;102042.06;5018173;27;20033;-71
2022/03/15 03:35:43;;;;;;;6.95;5.82;;;;;;;4.34;81.73;102036.09;5022009;27;20044;-71
2022/03/15 03:38:09;;;;;;;6.45;5.80;;;;;;;4.28;82.45;102042.44;5043769;27;20128;-70
2022/03/15 03:40:34;;;;;;;7.30;6.35;;;;;;;4.27;82.18;102040.72;5008228;27;20166;-70
2022/03/15 03:43:00;;;;;;;6.60;6.10;;;;;;;4.20;82.88;102049.75;5015180;27;20036;-70
2022/03/15 03:45:26;;;;;;;7.93;6.30;;;;;;;4.14;82.86;102040.38;5020958;27;20064;-73
2022/03/15 03:47:51;;;;;;;7.38;6.00;;;;;;;4.23;82.88;102044.38;5034970;27;20369;-70
2022/03/15 03:50:17;;;;;;;9.35;6.75;;;;;;;4.27;82.48;102051.22;5054911;27;20023;-70
2022/03/15 03:52:43;;;;;;;6.65;5.93;;;;;;;4.18;82.66;102041.13;5051310;27;20473;-70
2022/03/15 03:55:09;;;;;;;8.88;6.47;;;;;;;4.34;82.55;102041.34;5015362;27;20966;-71
2022/03/15 03:57:34;;;;;;;6.65;5.88;;;;;;;4.29;82.17;102039.75;5051858;27;20129;-70
2022/03/15 03:59:59;;;;;;;9.88;6.28;;;;;;;4.23;82.21;102029.53;5035022;27;20024;-71
2022/03/15 04:02:26;;;;;;;7.63;6.43;;;;;;;4.20;82.45;102029.69;5035455;27;20008;-71
2022/03/15 04:04:53;;;;;;;7.03;5.70;;;;;;;4.29;82.69;102033.69;5035994;27;20295;-71
2022/03/15 04:07:19;;;;;;;6.82;6.13;;;;;;;4.57;82.05;102037.72;4998155;27;20140;-71
2022/03/15 04:09:44;;;;;;;6.32;5.70;;;;;;;4.32;82.59;102041.41;5011195;28;20481;-71
2022/03/15 04:12:10;;;;;;;7.22;6.53;;;;;;;4.30;82.48;102033.59;4986398;28;20108;-71
2022/03/15 04:14:35;;;;;;;7.18;6.30;;;;;;;4.33;82.99;102037.88;5012665;28;20025;-70
2022/03/15 04:17:02;;;;;;;7.88;5.90;;;;;;;4.30;82.41;102037.97;5026573;27;20025;-70
2022/03/15 04:19:28;;;;;;;6.47;5.43;;;;;;;4.27;82.35;102036.34;5008642;28;20025;-71
2022/03/15 04:21:53;;;;;;;7.70;6.00;;;;;;;4.24;82.91;102036.47;5005451;27;20024;-70
2022/03/15 04:24:19;;;;;;;6.78;5.82;;;;;;;4.21;83.13;102035.75;4994701;27;20017;-70
2022/03/15 04:26:45;;;;;;;6.45;5.68;;;;;;;4.25;83.15;102032.09;5011476;27;20017;-70
2022/03/15 04:29:10;;;;;;;6.97;6.28;;;;;;;4.20;83.22;102023.56;4993685;27;20045;-71
2022/03/15 04:31:36;;;;;;;7.05;5.97;;;;;;;4.21;83.09;102026.13;5007135;28;20016;-71
2022/03/15 04:34:01;;;;;;;6.97;6.20;;;;;;;4.10;83.58;102021.34;5010601;28;20033;-71
2022/03/15 04:36:27;;;;;;;8.80;5.97;;;;;;;4.34;83.09;102020.38;5010914;28;20014;-71
2022/03/15 04:38:53;;;;;;;7.07;5.60;;;;;;;4.21;83.53;102025.28;5010915;28;20915;-70
2022/03/15 04:41:18;;;;;;;8.27;5.95;;;;;;;4.06;83.34;102022.38;4991750;28;20017;-70
2022/03/15 04:43:43;;;;;;;6.95;5.47;;;;;;;4.17;83.54;102021.06;4974160;28;20014;-71
2022/03/15 04:46:09;;;;;;;6.57;5.97;;;;;;;4.22;82.99;102016.50;4990615;28;20006;-73
2022/03/15 04:48:34;;;;;;;9.00;5.97;;;;;;;4.27;82.86;102011.91;4990213;28;20120;-70
2022/03/15 04:51:00;;;;;;;6.78;5.93;;;;;;;4.19;83.26;102007.00;4972766;28;20018;-70
2022/03/15 04:53:25;;;;;;;6.65;5.60;;;;;;;4.21;82.88;102007.78;4989110;28;20061;-70
2022/03/15 04:55:50;;;;;;;8.32;5.63;;;;;;;4.19;83.53;102011.38;4972756;28;20382;-70
2022/03/15 04:58:16;;;;;;;6.55;5.82;;;;;;;4.15;83.49;102005.41;4991866;28;20021;-70
2022/03/15 05:00:41;;;;;;;5.88;5.38;;;;;;;4.11;83.60;102006.47;4955495;28;20310;-71
2022/03/15 05:03:06;;;;;;;7.22;5.50;;;;;;;4.17;83.84;102002.75;4989318;28;20826;-71
2022/03/15 05:05:32;;;;;;;7.28;5.70;;;;;;;4.10;83.80;101996.91;4973824;28;20033;-71
2022/03/15 05:07:57;;;;;;;6.28;5.40;;;;;;;4.18;83.62;102002.66;4992171;28;20069;-71
2022/03/15 05:13:07;;;;;;;6.47;5.60;;;;;;;4.17;83.90;101994.88;5014633;28;20109;-71
2022/03/15 05:15:33;;;;;;;7.53;6.00;;;;;;;4.05;84.33;101989.25;4992728;28;20388;-70
2022/03/15 05:17:59;;;;;;;7.43;5.50;;;;;;;4.13;83.87;101997.63;4994273;28;20120;-71
2022/03/15 05:20:24;;;;;;;6.72;6.00;;;;;;;4.12;84.10;101980.19;4959039;28;20227;-72
2022/03/15 05:22:49;;;;;;;9.98;6.30;;;;;;;4.20;83.98;101992.13;4991209;28;19997;-71
2022/03/15 05:25:15;;;;;;;7.03;5.63;;;;;;;4.22;83.42;101990.31;5014133;27;20052;-71
2022/03/15 05:27:41;;;;;;;6.18;5.40;;;;;;;4.49;82.77;101996.13;5017686;27;20024;-71
2022/03/15 05:30:07;;;;;;;6.20;5.60;;;;;;;4.22;83.55;101995.56;5034709;27;20023;-70
2022/03/15 05:32:32;;;;;;;6.07;5.25;;;;;;;4.41;83.13;101990.34;5041533;27;20413;-71
2022/03/15 05:34:58;;;;;;;7.10;5.57;;;;;;;4.43;83.12;101997.25;5008353;28;20092;-71
2022/03/15 05:37:23;;;;;;;7.35;5.88;;;;;;;4.31;83.12;101984.66;5037397;27;20125;-71
2022/03/15 05:39:49;;;;;;;6.45;5.65;;;;;;;4.28;83.25;101984.78;5026490;28;20041;-71
2022/03/15 05:42:14;;;;;;;5.70;5.20;;;;;;;4.24;83.54;101991.06;5024756;27;20280;-70
2022/03/15 05:44:40;;;;;;;7.22;5.65;;;;;;;4.26;83.69;101986.66;5030311;28;20116;-71
2022/03/15 05:47:05;;;;;;;7.25;5.60;;;;;;;4.37;83.72;101983.53;5016511;27;20886;-71
2022/03/15 05:49:31;;;;;;;5.32;4.82;;;;;;;4.41;83.47;101980.75;5021680;27;20849;-72
2022/03/15 05:51:56;;;;;;;6.60;5.47;;;;;;;4.35;83.27;101986.22;5039018;27;20070;-71
2022/03/15 05:54:22;;;;;;;6.97;5.10;;;;;;;4.39;83.50;101972.09;5019020;27;20089;-72
2022/03/15 05:56:47;;;;;;;6.60;5.32;;;;;;;4.35;84.00;101980.16;5023025;27;20953;-71
2022/03/15 05:59:13;;;;;;;11.00;5.30;;;;;;;4.39;83.66;101973.88;5037006;27;20022;-72
2022/03/15 06:01:38;;;;;;;5.82;5.32;;;;;;;4.39;83.76;101969.47;5042157;27;20005;-74
2022/03/15 06:04:05;;;;;;;7.63;5.50;;;;;;;4.41;83.42;101967.66;5024773;27;20734;-71
2022/03/15 06:06:30;;;;;;;5.90;5.28;;;;;;;4.43;83.53;101965.78;5041171;27;20036;-72
2022/03/15 06:08:56;;;;;;;5.45;4.95;;;;;;;4.50;83.27;101971.63;5036139;27;20013;-72
2022/03/15 06:11:21;;;;;;;5.35;4.85;;;;;;;4.44;83.38;101969.25;5037340;27;20028;-73
2022/03/15 06:13:47;;;;;;;6.68;5.43;;;;;;;4.43;83.59;101965.78;5045592;27;20848;-72
2022/03/15 06:16:13;;;;;;;5.72;5.10;;;;;;;4.43;83.59;101965.78;5025664;27;20013;-72
2022/03/15 06:18:38;;;;;;;5.63;4.78;;;;;;;4.53;83.71;101968.03;5043687;27;20093;-72
2022/03/15 06:21:03;;;;;;;5.38;4.85;;;;;;;4.72;83.03;101960.19;5046677;27;20016;-72
2022/03/15 06:23:29;;;;;;;7.13;5.20;;;;;;;4.61;83.22;101960.66;5045711;27;20105;-73
2022/03/15 06:25:55;;;;;;;5.35;4.63;;;;;;;4.67;83.42;101949.91;5047538;27;20009;-72
2022/03/15 06:28:20;;;;;;;5.45;4.95;;;;;;;4.65;83.25;101951.72;5046874;27;20911;-72
2022/03/15 06:30:45;;;;;;;6.65;4.65;;;;;;;4.70;83.34;101952.38;5047336;27;20017;-71
2022/03/15 06:33:11;;;;;;;5.18;4.78;;;;;;;4.73;83.66;101954.88;5028407;27;20056;-71
2022/03/15 06:35:37;;;;;;;5.07;4.47;;;;;;;4.76;83.61;101957.34;5027263;27;20134;-72
2022/03/15 06:38:02;;;;;;;5.00;4.60;;;;;;;4.85;83.12;101952.59;5047259;27;20258;-72
2022/03/15 06:40:29;;;;;;;4.97;4.55;;;;;;;4.91;83.40;101957.59;5022222;27;20093;-72
2022/03/15 06:42:54;;;;;;;5.75;4.53;;;;;;;4.97;83.62;101957.31;5053308;27;20333;-72
2022/03/15 06:45:20;;;;;;;5.28;4.60;;;;;;;5.04;83.03;101956.09;5036476;27;20074;-73
2022/03/15 06:47:45;;;;;;;6.00;4.53;;;;;;;5.08;83.25;101952.41;5063565;27;20099;-73
2022/03/15 06:50:12;;;;;;;4.72;4.18;;;;;;;5.16;83.72;101949.41;5015043;27;20745;-71
2022/03/15 06:52:38;;;;;;;7.63;4.70;;;;;;;5.39;83.09;101940.47;5035782;27;20028;-71
2022/03/15 06:55:04;;;;;;;5.90;4.35;;;;;;;5.46;82.43;101934.00;5022519;27;20345;-72
2022/03/15 06:57:30;;;;;;;5.05;4.13;;;;;;;5.59;82.20;101936.03;5035064;27;20338;-71
2022/03/15 06:59:56;;;;;;;8.52;5.07;;;;;;;5.41;83.22;101938.59;5032230;27;20088;-71
2022/03/15 07:02:22;;;;;;;5.10;4.60;;;;;;;5.50;83.39;101926.84;5030399;27;20233;-72
2022/03/15 07:04:47;;;;;;;6.38;4.68;;;;;;;5.58;83.63;101926.44;5032934;27;20136;-71
2022/03/15 07:07:13;;;;;;;6.00;4.57;;;;;;;5.55;83.69;101926.59;5033697;27;20105;-72
2022/03/15 07:09:38;;;;;;;6.10;4.82;;;;;;;5.62;83.36;101915.69;4991689;28;21078;-72
2022/03/15 07:12:04;;;;;;;5.07;4.32;;;;;;;5.71;83.32;101917.06;5009209;27;20056;-72
2022/03/15 07:14:30;;;;;;;6.18;4.50;;;;;;;5.85;82.82;101919.84;5036392;27;20494;-72
2022/03/15 07:16:55;;;;;;;6.90;5.43;;;;;;;5.95;82.37;101921.97;5016384;27;20991;-71
2022/03/15 07:19:20;;;;;;;9.02;6.63;;;;;;;6.08;83.00;101920.47;5033175;27;20117;-72
2022/03/15 07:21:46;;;;;;;7.68;5.90;;;;;;;6.26;81.74;101928.31;5001102;27;20021;-71
2022/03/15 07:24:11;;;;;;;8.77;6.88;;;;;;;6.18;82.46;101926.94;5032887;27;20027;-72
2022/03/15 07:26:37;;;;;;;6.97;6.30;;;;;;;6.28;82.90;101927.31;5016869;27;20001;-71
2022/03/15 07:29:02;;;;;;;6.95;5.78;;;;;;;6.31;82.70;101927.16;5031938;27;20028;-72
2022/03/15 07:31:28;;;;;;;5.32;4.90;;;;;;;6.36;81.34;101919.88;5032432;27;20156;-72
2022/03/15 07:33:53;;;;;;;4.70;4.30;;;;;;;6.42;82.05;101920.50;5013338;27;20040;-71
2022/03/15 07:36:19;;;;;;;6.03;3.90;;;;;;;6.47;80.98;101907.94;5036498;27;20016;-74
2022/03/15 07:38:45;;;;;;;6.82;4.00;;;;;;;6.62;80.74;101908.94;5016199;27;20971;-73
2022/03/15 07:41:10;;;;;;;8.13;4.25;;;;;;;6.77;81.02;101912.50;5020555;27;20021;-72
2022/03/15 07:43:35;;;;;;;5.53;3.88;;;;;;;6.70;81.12;101912.00;5017045;27;20375;-72
2022/03/15 07:46:01;;;;;;;4.70;3.95;;;;;;;6.77;81.42;101912.50;5011738;27;20036;-73
2022/03/15 07:48:26;;;;;;;5.75;3.58;;;;;;;6.75;81.36;101909.09;5014244;28;20026;-72
2022/03/15 07:50:52;;;;;;;6.75;3.53;;;;;;;6.86;80.75;101910.22;5008450;27;20641;-71
2022/03/15 07:53:18;;;;;;;4.90;3.65;;;;;;;6.80;81.06;101897.41;5036760;27;20841;-72
2022/03/15 07:55:43;;;;;;;5.00;3.85;;;;;;;6.83;80.92;101902.50;5016279;27;20460;-71
2022/03/15 07:58:09;;;;;;;5.35;3.72;;;;;;;6.85;81.12;101895.38;5032115;27;20013;-72
2022/03/15 08:00:34;;;;;;;3.92;3.13;;;;;;;6.87;80.43;101898.75;5021942;27;21106;-72
2022/03/15 08:03:00;;;;;;;3.42;3.15;;;;;;;6.95;79.71;101900.13;5021269;27;20367;-72
2022/03/15 08:05:27;;;;;;;6.43;3.35;;;;;;;7.05;79.98;101890.81;5031601;27;20009;-72
2022/03/15 08:07:53;;;;;;;6.22;3.20;;;;;;;7.13;80.26;101893.81;5008548;28;20226;-72
2022/03/15 08:10:18;;;;;;;4.45;3.00;;;;;;;7.21;80.07;101883.72;5005763;27;20029;-72
2022/03/15 08:12:43;;;;;;;3.92;2.78;;;;;;;7.29;79.80;101890.34;5020385;27;20017;-72
2022/03/15 08:15:10;;;;;;;6.25;3.20;;;;;;;7.41;77.57;101886.16;5030757;27;20148;-72
2022/03/15 08:17:35;;;;;;;3.28;2.60;;;;;;;7.57;74.17;101892.22;5031286;27;20251;-72
2022/03/15 08:20:01;;;;;;;5.65;2.80;;;;;;;7.69;74.87;101880.16;5017764;27;21068;-71
2022/03/15 08:22:28;;;;;;;4.15;2.50;;;;;;;7.84;74.40;101879.25;5029364;27;20422;-72
2022/03/15 08:24:54;;;;;;;5.82;2.60;;;;;;;7.89;73.70;101877.16;5033299;27;20866;-72
2022/03/15 08:27:19;;;;;;;6.20;2.60;;;;;;;8.01;72.97;101885.28;5000641;27;20028;-71
2022/03/15 08:29:45;;;;;;;3.00;2.47;;;;;;;8.02;71.24;101885.22;5033012;27;20109;-73
2022/03/15 08:32:10;;;;;;;5.93;2.67;;;;;;;8.12;71.12;101872.28;5035743;27;20017;-72
2022/03/15 08:34:37;;;;;;;8.30;2.75;;;;;;;8.15;70.32;101881.81;5032053;27;20137;-71
2022/03/15 08:37:03;;;;;;;4.72;2.90;;;;;;;8.21;69.36;101877.03;5032598;27;20024;-72
2022/03/15 08:39:28;;;;;;;3.45;2.42;;;;;;;8.24;69.10;101876.00;5031671;27;20132;-72
2022/03/15 08:41:54;;;;;;;3.15;2.55;;;;;;;8.26;68.92;101874.09;5008788;27;20028;-73
2022/03/15 08:44:19;;;;;;;4.05;2.80;;;;;;;8.35;67.46;101875.34;5037313;27;20395;-72
2022/03/15 08:46:49;;;;;;;3.53;2.53;;;;;;;8.33;68.20;101874.56;4992641;28;20013;-71
2022/03/15 08:49:18;;;;;;;3.53;2.03;;;;;;;8.34;68.14;101876.28;4997977;27;20028;-71
2022/03/15 08:51:44;;;;;;;6.45;2.85;;;;;;;8.39;68.73;101874.19;4999399;27;20028;-72
2022/03/15 08:54:09;;;;;;;4.47;2.60;;;;;;;8.40;68.05;101862.69;5032659;27;20036;-72
2022/03/15 08:56:36;;;;;;;3.13;2.72;;;;;;;8.42;68.45;101866.94;5017847;27;20747;-73
2022/03/15 08:59:01;;;;;;;7.88;2.97;;;;;;;8.47;68.52;101861.41;5036116;27;20013;-72
2022/03/15 09:01:27;;;;;;;4.68;2.50;;;;;;;8.51;67.82;101862.91;5046992;27;20510;-72
2022/03/15 09:03:52;;;;;;;5.03;2.95;;;;;;;8.53;67.82;101866.31;5038732;27;20244;-72
2022/03/15 09:06:18;;;;;;;3.88;3.00;;;;;;;8.61;67.25;101859.72;5044284;27;20031;-72
2022/03/15 09:08:43;;;;;;;3.83;2.97;;;;;;;8.66;66.70;101862.88;5016035;27;20005;-71
2022/03/15 09:11:08;;;;;;;6.07;3.17;;;;;;;8.68;67.04;101855.75;5032182;27;20028;-73
2022/03/15 09:13:34;;;;;;;4.20;2.95;;;;;;;8.69;66.54;101855.63;5037724;28;20052;-72
2022/03/15 09:16:00;;;;;;;3.55;2.67;;;;;;;8.71;66.44;101852.91;5020052;28;20017;-72
2022/03/15 09:18:27;;;;;;;6.50;2.90;;;;;;;8.68;66.00;101847.81;5024951;28;20254;-73
2022/03/15 09:20:53;;;;;;;3.45;2.55;;;;;;;8.78;66.48;101843.66;5026607;27;20564;-71
2022/03/15 09:23:18;;;;;;;4.38;2.63;;;;;;;8.82;66.50;101842.50;5020043;28;20029;-73
2022/03/15 09:25:44;;;;;;;3.05;2.75;;;;;;;8.83;66.57;101841.56;5042401;27;20538;-72
2022/03/15 09:28:10;;;;;;;6.95;3.08;;;;;;;8.88;66.10;101843.91;5025298;27;20045;-71
2022/03/15 09:30:36;;;;;;;3.00;2.70;;;;;;;8.87;66.57;101845.72;5042679;27;20640;-72
2022/03/15 09:33:02;;;;;;;3.63;2.70;;;;;;;8.95;66.76;101839.91;5029841;27;20125;-72
2022/03/15 09:35:27;;;;;;;3.30;3.00;;;;;;;8.98;67.05;101838.88;5029035;27;20029;-71
2022/03/15 09:37:52;;;;;;;3.42;2.90;;;;;;;9.11;66.58;101826.59;5048462;27;20021;-71
2022/03/15 09:40:23;;;;;;;3.75;2.55;;;;;;;9.14;66.88;101823.75;5028297;27;20037;-71
2022/03/15 09:42:49;;;;;;;4.32;2.92;;;;;;;9.14;67.02;101831.66;5038071;27;20353;-72
2022/03/15 09:45:16;;;;;;;3.67;2.80;;;;;;;9.20;66.49;101825.13;5013156;27;20038;-71
2022/03/15 09:47:41;;;;;;;3.20;2.70;;;;;;;9.21;66.40;101826.84;5010568;28;20062;-72
2022/03/15 09:50:07;;;;;;;5.03;2.97;;;;;;;9.20;65.96;101827.78;5031247;27;20465;-70
2022/03/15 09:52:34;;;;;;;3.92;2.50;;;;;;;9.22;65.55;101820.59;5041705;27;20040;-72
2022/03/15 09:55:00;;;;;;;3.78;2.78;;;;;;;9.22;66.40;101831.16;5055066;27;20078;-72
2022/03/15 09:57:26;;;;;;;4.05;2.90;;;;;;;9.26;66.13;101827.34;5041253;28;20036;-72
2022/03/15 09:59:51;;;;;;;3.33;2.63;;;;;;;9.25;66.71;101815.97;4982327;28;20033;-73
2022/03/15 10:02:17;;;;;;;2.92;2.47;;;;;;;9.35;66.40;101820.63;4996670;28;20258;-72
2022/03/15 10:04:42;;;;;;;2.70;2.40;;;;;;;9.34;65.81;101808.38;5019537;27;20013;-72
2022/03/15 10:07:08;;;;;;;6.55;2.50;;;;;;;9.35;65.20;101810.03;5031969;27;20005;-72
2022/03/15 10:09:34;;;;;;;3.58;2.50;;;;;;;9.34;65.04;101798.66;5017519;27;20906;-72
2022/03/15 10:11:59;;;;;;;3.83;2.60;;;;;;;9.28;65.18;101804.34;5033786;27;20051;-72
2022/03/15 10:14:25;;;;;;;3.80;2.38;;;;;;;9.35;66.44;101800.34;5023096;27;20923;-72
2022/03/15 10:16:50;;;;;;;5.53;2.85;;;;;;;9.36;65.41;101798.53;5035612;27;20097;-71
2022/03/15 10:19:16;;;;;;;3.35;2.50;;;;;;;9.40;65.57;101794.75;5035836;27;20036;-73
2022/03/15 10:21:54;;;;;;;3.97;2.70;;;;;;;9.47;64.58;101806.59;5016037;27;20024;-71
2022/03/15 10:24:22;;;;;;;5.10;2.65;;;;;;;9.52;64.82;101799.22;5018538;28;20485;-72
2022/03/15 10:26:49;;;;;;;5.07;3.00;;;;;;;9.62;64.24;101791.50;5015643;28;20770;-73
2022/03/15 10:29:15;;;;;;;3.35;3.00;;;;;;;9.60;64.92;101798.66;5014483;27;20029;-72
2022/03/15 10:31:41;;;;;;;4.18;2.72;;;;;;;9.56;64.07;101790.13;4993852;28;20026;-72
2022/03/15 10:34:07;;;;;;;5.28;2.67;;;;;;;9.57;64.63;101796.25;4988501;28;20041;-72
2022/03/15 10:36:43;;;;;;;4.38;2.72;;;;;;;9.67;64.46;101791.19;4991719;27;20032;-72
2022/03/15 10:39:10;;;;;;;5.65;3.58;;;;;;;9.66;64.49;101787.69;5015336;27;20140;-71
2022/03/15 10:41:52;;;;;;;3.50;3.17;;;;;;;9.75;64.40;101783.56;5031377;27;20024;-72
2022/03/15 10:44:19;;;;;;;4.43;3.10;;;;;;;9.84;64.68;101777.63;5032000;27;20040;-72
2022/03/15 10:46:45;;;;;;;3.08;2.65;;;;;;;9.88;64.58;101784.41;5044965;27;20013;-72
2022/03/15 10:49:11;;;;;;;5.18;2.70;;;;;;;9.93;63.89;101781.47;5050192;27;20065;-71
2022/03/15 10:51:37;;;;;;;4.88;3.00;;;;;;;9.95;64.13;101774.25;5012372;27;20025;-72
2022/03/15 10:54:03;;;;;;;2.85;2.47;;;;;;;9.99;64.07;101780.19;5051191;27;20063;-72
2022/03/15 10:56:29;;;;;;;4.03;2.70;;;;;;;10.01;62.94;101772.97;5028843;27;20018;-72
2022/03/15 10:58:59;;;;;;;4.22;2.97;;;;;;;9.96;63.62;101763.56;4991896;28;20017;-72
2022/03/15 11:01:24;;;;;;;3.28;2.83;;;;;;;9.96;64.50;101774.16;5009473;28;20021;-72
2022/03/15 11:04:03;;;;;;;3.28;2.97;;;;;;;9.91;63.30;101773.63;5026258;27;20089;-72
2022/03/15 11:06:31;;;;;;;6.28;2.78;;;;;;;9.91;62.40;101765.72;4996485;28;20025;-72
2022/03/15 11:08:57;;;;;;;5.28;2.50;;;;;;;9.79;63.57;101771.84;5018339;27;20024;-72
2022/03/15 11:11:26;;;;;;;3.97;2.80;;;;;;;9.73;63.01;101761.66;5040409;27;20039;-73
2022/03/15 11:14:00;;;;;;;4.05;2.83;;;;;;;9.64;64.85;101763.16;5026050;27;21069;-71
2022/03/15 11:16:26;;;;;;;3.15;2.85;;;;;;;9.66;64.66;101749.84;5040755;27;20238;-73
2022/03/15 11:18:52;;;;;;;4.18;2.70;;;;;;;9.82;65.46;101755.75;5031514;27;20037;-72
2022/03/15 11:21:17;;;;;;;3.30;2.70;;;;;;;9.75;64.78;101751.84;5016633;27;20276;-73
2022/03/15 11:23:42;;;;;;;2.92;2.55;;;;;;;9.74;65.71;101747.50;4998858;27;20437;-73
2022/03/15 11:26:08;;;;;;;5.68;2.70;;;;;;;9.71;65.87;101739.81;5014679;27;20013;-73
2022/03/15 11:28:36;;;;;;;4.93;2.90;;;;;;;9.73;68.00;101748.47;5017946;27;20068;-73
2022/03/15 11:31:01;;;;;;;3.05;2.50;;;;;;;9.64;67.36;101742.00;5016027;27;20040;-72